sensor_id;sensor_type;location;lat;lon;timestamp;temperature;humidity
80232;DHT22;74189;42.124;24.752;2024-03-17T00:01:10;10.50;65.70
80232;DHT22;74189;42.124;24.752;2024-03-17T00:03:37;10.70;65.30
80232;DHT22;74189;42.124;24.752;2024-03-17T00:06:03;10.80;65.00
80232;DHT22;74189;42.124;24.752;2024-03-17T00:08:30;10.80;65.10
80232;DHT22;74189;42.124;24.752;2024-03-17T00:10:56;10.80;64.80
80232;DHT22;74189;42.124;24.752;2024-03-17T00:13:24;11.00;64.80
80232;DHT22;74189;42.124;24.752;2024-03-17T00:15:50;11.10;64.30
80232;DHT22;74189;42.124;24.752;2024-03-17T00:18:17;11.20;63.90
80232;DHT22;74189;42.124;24.752;2024-03-17T00:20:44;11.10;64.00
80232;DHT22;74189;42.124;24.752;2024-03-17T00:23:10;11.00;64.10
80232;DHT22;74189;42.124;24.752;2024-03-17T00:25:38;11.00;64.40
80232;DHT22;74189;42.124;24.752;2024-03-17T00:28:05;10.90;64.80
80232;DHT22;74189;42.124;24.752;2024-03-17T00:30:31;10.80;65.00
80232;DHT22;74189;42.124;24.752;2024-03-17T00:32:58;10.80;65.00
80232;DHT22;74189;42.124;24.752;2024-03-17T00:35:25;10.90;65.10
80232;DHT22;74189;42.124;24.752;2024-03-17T00:37:51;10.80;65.10
80232;DHT22;74189;42.124;24.752;2024-03-17T00:40:19;10.80;65.20
80232;DHT22;74189;42.124;24.752;2024-03-17T00:42:46;10.80;65.00
80232;DHT22;74189;42.124;24.752;2024-03-17T00:45:13;10.90;64.90
80232;DHT22;74189;42.124;24.752;2024-03-17T00:47:39;10.80;65.10
80232;DHT22;74189;42.124;24.752;2024-03-17T00:50:06;10.80;66.30
80232;DHT22;74189;42.124;24.752;2024-03-17T00:52:34;10.80;65.40
80232;DHT22;74189;42.124;24.752;2024-03-17T00:55:01;10.70;65.60
80232;DHT22;74189;42.124;24.752;2024-03-17T00:57:28;10.70;65.60
80232;DHT22;74189;42.124;24.752;2024-03-17T00:59:54;10.60;66.00
80232;DHT22;74189;42.124;24.752;2024-03-17T01:02:20;10.70;66.00
80232;DHT22;74189;42.124;24.752;2024-03-17T01:04:47;10.80;65.80
80232;DHT22;74189;42.124;24.752;2024-03-17T01:07:13;10.80;65.50
80232;DHT22;74189;42.124;24.752;2024-03-17T01:09:40;10.90;65.30
80232;DHT22;74189;42.124;24.752;2024-03-17T01:12:06;10.90;65.10
80232;DHT22;74189;42.124;24.752;2024-03-17T01:14:32;10.90;64.70
80232;DHT22;74189;42.124;24.752;2024-03-17T01:17:01;10.90;64.70
80232;DHT22;74189;42.124;24.752;2024-03-17T01:19:31;10.90;64.70
80232;DHT22;74189;42.124;24.752;2024-03-17T01:21:59;10.90;64.80
80232;DHT22;74189;42.124;24.752;2024-03-17T01:24:26;10.80;64.80
80232;DHT22;74189;42.124;24.752;2024-03-17T01:27:00;10.80;64.70
80232;DHT22;74189;42.124;24.752;2024-03-17T01:29:26;10.90;64.70
80232;DHT22;74189;42.124;24.752;2024-03-17T01:31:53;10.80;64.70
80232;DHT22;74189;42.124;24.752;2024-03-17T01:34:20;10.90;64.80
80232;DHT22;74189;42.124;24.752;2024-03-17T01:36:46;10.80;64.70
80232;DHT22;74189;42.124;24.752;2024-03-17T01:39:12;10.70;66.00
80232;DHT22;74189;42.124;24.752;2024-03-17T01:41:44;10.50;65.70
80232;DHT22;74189;42.124;24.752;2024-03-17T01:44:24;10.60;65.70
80232;DHT22;74189;42.124;24.752;2024-03-17T01:46:51;10.60;65.70
80232;DHT22;74189;42.124;24.752;2024-03-17T01:49:18;10.60;65.60
80232;DHT22;74189;42.124;24.752;2024-03-17T01:51:46;10.40;65.50
80232;DHT22;74189;42.124;24.752;2024-03-17T01:54:12;10.30;65.70
80232;DHT22;74189;42.124;24.752;2024-03-17T01:56:39;10.30;65.90
80232;DHT22;74189;42.124;24.752;2024-03-17T01:59:07;10.30;66.20
80232;DHT22;74189;42.124;24.752;2024-03-17T02:01:36;10.30;66.30
80232;DHT22;74189;42.124;24.752;2024-03-17T02:04:04;10.30;66.20
80232;DHT22;74189;42.124;24.752;2024-03-17T02:06:31;10.30;66.10
80232;DHT22;74189;42.124;24.752;2024-03-17T02:08:57;10.30;66.20
80232;DHT22;74189;42.124;24.752;2024-03-17T02:11:24;10.30;66.40
80232;DHT22;74189;42.124;24.752;2024-03-17T02:13:52;10.30;66.30
80232;DHT22;74189;42.124;24.752;2024-03-17T02:16:18;10.40;66.40
80232;DHT22;74189;42.124;24.752;2024-03-17T02:18:45;10.40;66.60
80232;DHT22;74189;42.124;24.752;2024-03-17T02:21:15;10.40;66.60
80232;DHT22;74189;42.124;24.752;2024-03-17T02:23:42;10.50;66.80
80232;DHT22;74189;42.124;24.752;2024-03-17T02:26:09;10.50;67.00
80232;DHT22;74189;42.124;24.752;2024-03-17T02:28:43;10.50;67.50
80232;DHT22;74189;42.124;24.752;2024-03-17T02:31:11;10.60;67.20
80232;DHT22;74189;42.124;24.752;2024-03-17T02:33:38;10.50;67.30
80232;DHT22;74189;42.124;24.752;2024-03-17T02:36:05;10.60;67.30
80232;DHT22;74189;42.124;24.752;2024-03-17T02:38:33;10.60;67.40
80232;DHT22;74189;42.124;24.752;2024-03-17T02:41:18;10.50;67.70
80232;DHT22;74189;42.124;24.752;2024-03-17T02:43:45;10.40;68.00
80232;DHT22;74189;42.124;24.752;2024-03-17T02:46:13;10.40;68.50
80232;DHT22;74189;42.124;24.752;2024-03-17T02:48:40;10.40;68.50
80232;DHT22;74189;42.124;24.752;2024-03-17T02:51:11;10.40;69.00
80232;DHT22;74189;42.124;24.752;2024-03-17T02:53:41;10.40;68.90
80232;DHT22;74189;42.124;24.752;2024-03-17T02:56:09;10.50;68.80
80232;DHT22;74189;42.124;24.752;2024-03-17T02:58:36;10.50;68.50
80232;DHT22;74189;42.124;24.752;2024-03-17T03:01:06;10.50;69.90
80232;DHT22;74189;42.124;24.752;2024-03-17T03:03:33;10.50;68.90
80232;DHT22;74189;42.124;24.752;2024-03-17T03:06:00;10.40;69.00
80232;DHT22;74189;42.124;24.752;2024-03-17T03:08:33;10.40;69.20
80232;DHT22;74189;42.124;24.752;2024-03-17T03:10:59;10.50;69.10
80232;DHT22;74189;42.124;24.752;2024-03-17T03:13:26;10.40;69.30
80232;DHT22;74189;42.124;24.752;2024-03-17T03:15:52;10.40;69.30
80232;DHT22;74189;42.124;24.752;2024-03-17T03:18:19;10.50;69.20
80232;DHT22;74189;42.124;24.752;2024-03-17T03:20:51;10.40;69.60
80232;DHT22;74189;42.124;24.752;2024-03-17T03:23:18;10.20;70.10
80232;DHT22;74189;42.124;24.752;2024-03-17T03:25:45;10.10;71.00
80232;DHT22;74189;42.124;24.752;2024-03-17T03:28:12;9.80;71.60
80232;DHT22;74189;42.124;24.752;2024-03-17T03:30:39;9.90;71.30
80232;DHT22;74189;42.124;24.752;2024-03-17T03:33:07;9.90;71.50
80232;DHT22;74189;42.124;24.752;2024-03-17T03:35:33;9.90;71.50
80232;DHT22;74189;42.124;24.752;2024-03-17T03:38:00;10.00;71.30
80232;DHT22;74189;42.124;24.752;2024-03-17T03:40:28;10.00;71.00
80232;DHT22;74189;42.124;24.752;2024-03-17T03:42:55;9.80;71.60
80232;DHT22;74189;42.124;24.752;2024-03-17T03:45:22;9.80;72.10
80232;DHT22;74189;42.124;24.752;2024-03-17T03:47:50;9.90;71.80
80232;DHT22;74189;42.124;24.752;2024-03-17T03:50:19;9.60;72.60
80232;DHT22;74189;42.124;24.752;2024-03-17T03:52:46;9.80;72.60
80232;DHT22;74189;42.124;24.752;2024-03-17T03:55:13;9.90;72.30
80232;DHT22;74189;42.124;24.752;2024-03-17T03:57:42;9.90;71.90
80232;DHT22;74189;42.124;24.752;2024-03-17T04:00:12;10.00;71.70
80232;DHT22;74189;42.124;24.752;2024-03-17T04:02:39;10.00;71.40
80232;DHT22;74189;42.124;24.752;2024-03-17T04:05:09;9.90;71.50
80232;DHT22;74189;42.124;24.752;2024-03-17T04:07:36;9.80;71.80
80232;DHT22;74189;42.124;24.752;2024-03-17T04:10:03;9.90;72.10
80232;DHT22;74189;42.124;24.752;2024-03-17T04:12:29;9.90;71.80
80232;DHT22;74189;42.124;24.752;2024-03-17T04:14:57;10.00;71.70
80232;DHT22;74189;42.124;24.752;2024-03-17T04:17:24;9.70;72.70
80232;DHT22;74189;42.124;24.752;2024-03-17T04:19:51;9.60;73.60
80232;DHT22;74189;42.124;24.752;2024-03-17T04:22:18;9.40;74.50
80232;DHT22;74189;42.124;24.752;2024-03-17T04:24:48;9.40;74.90
80232;DHT22;74189;42.124;24.752;2024-03-17T04:27:20;9.40;74.60
80232;DHT22;74189;42.124;24.752;2024-03-17T04:29:47;9.30;74.90
80232;DHT22;74189;42.124;24.752;2024-03-17T04:32:16;9.40;74.50
80232;DHT22;74189;42.124;24.752;2024-03-17T04:34:42;9.60;74.10
80232;DHT22;74189;42.124;24.752;2024-03-17T04:37:13;9.50;73.90
80232;DHT22;74189;42.124;24.752;2024-03-17T04:39:40;9.50;74.00
80232;DHT22;74189;42.124;24.752;2024-03-17T04:42:08;9.30;75.00
80232;DHT22;74189;42.124;24.752;2024-03-17T04:44:34;9.20;75.70
80232;DHT22;74189;42.124;24.752;2024-03-17T04:47:01;9.40;75.20
80232;DHT22;74189;42.124;24.752;2024-03-17T04:49:43;9.40;75.10
80232;DHT22;74189;42.124;24.752;2024-03-17T04:52:11;9.50;74.40
80232;DHT22;74189;42.124;24.752;2024-03-17T04:54:37;9.60;74.20
80232;DHT22;74189;42.124;24.752;2024-03-17T04:57:03;9.70;74.10
80232;DHT22;74189;42.124;24.752;2024-03-17T04:59:33;9.80;73.50
80232;DHT22;74189;42.124;24.752;2024-03-17T05:01:59;9.90;73.10
80232;DHT22;74189;42.124;24.752;2024-03-17T05:04:26;10.00;72.90
80232;DHT22;74189;42.124;24.752;2024-03-17T05:06:52;10.10;72.60
80232;DHT22;74189;42.124;24.752;2024-03-17T05:09:19;10.10;72.20
80232;DHT22;74189;42.124;24.752;2024-03-17T05:11:45;10.20;71.70
80232;DHT22;74189;42.124;24.752;2024-03-17T05:14:13;10.30;71.00
80232;DHT22;74189;42.124;24.752;2024-03-17T05:16:39;10.50;70.70
80232;DHT22;74189;42.124;24.752;2024-03-17T05:19:05;10.50;70.00
80232;DHT22;74189;42.124;24.752;2024-03-17T05:21:32;10.60;69.60
80232;DHT22;74189;42.124;24.752;2024-03-17T05:24:01;10.60;69.10
80232;DHT22;74189;42.124;24.752;2024-03-17T05:26:27;10.50;69.10
80232;DHT22;74189;42.124;24.752;2024-03-17T05:28:54;10.70;68.80
80232;DHT22;74189;42.124;24.752;2024-03-17T05:31:20;10.80;68.20
80232;DHT22;74189;42.124;24.752;2024-03-17T05:33:48;10.90;67.90
80232;DHT22;74189;42.124;24.752;2024-03-17T05:36:15;11.00;67.70
80232;DHT22;74189;42.124;24.752;2024-03-17T05:38:41;11.10;67.50
80232;DHT22;74189;42.124;24.752;2024-03-17T05:41:09;11.10;67.10
80232;DHT22;74189;42.124;24.752;2024-03-17T05:43:36;11.20;66.60
80232;DHT22;74189;42.124;24.752;2024-03-17T05:46:12;11.20;66.90
80232;DHT22;74189;42.124;24.752;2024-03-17T05:48:41;11.30;67.10
80232;DHT22;74189;42.124;24.752;2024-03-17T05:51:09;11.20;66.60
80232;DHT22;74189;42.124;24.752;2024-03-17T05:53:36;11.20;66.80
80232;DHT22;74189;42.124;24.752;2024-03-17T05:56:04;11.30;66.50
80232;DHT22;74189;42.124;24.752;2024-03-17T05:58:30;11.40;66.00
80232;DHT22;74189;42.124;24.752;2024-03-17T06:00:57;11.30;65.30
80232;DHT22;74189;42.124;24.752;2024-03-17T06:03:24;11.20;65.40
80232;DHT22;74189;42.124;24.752;2024-03-17T06:05:50;11.30;65.40
80232;DHT22;74189;42.124;24.752;2024-03-17T06:08:16;11.30;64.90
80232;DHT22;74189;42.124;24.752;2024-03-17T06:10:44;11.40;64.30
80232;DHT22;74189;42.124;24.752;2024-03-17T06:13:11;11.50;63.80
80232;DHT22;74189;42.124;24.752;2024-03-17T06:15:39;11.60;63.50
80232;DHT22;74189;42.124;24.752;2024-03-17T06:18:06;11.50;63.60
80232;DHT22;74189;42.124;24.752;2024-03-17T06:20:35;11.60;63.30
80232;DHT22;74189;42.124;24.752;2024-03-17T06:23:01;11.80;63.30
80232;DHT22;74189;42.124;24.752;2024-03-17T06:25:27;11.70;63.10
80232;DHT22;74189;42.124;24.752;2024-03-17T06:27:54;11.90;62.70
80232;DHT22;74189;42.124;24.752;2024-03-17T06:30:20;12.00;61.90
80232;DHT22;74189;42.124;24.752;2024-03-17T06:32:47;12.10;61.90
80232;DHT22;74189;42.124;24.752;2024-03-17T06:35:14;12.00;61.50
80232;DHT22;74189;42.124;24.752;2024-03-17T06:37:51;12.00;62.90
80232;DHT22;74189;42.124;24.752;2024-03-17T06:40:20;12.00;62.00
80232;DHT22;74189;42.124;24.752;2024-03-17T06:42:47;12.00;62.20
80232;DHT22;74189;42.124;24.752;2024-03-17T06:45:13;12.00;62.40
80232;DHT22;74189;42.124;24.752;2024-03-17T06:47:39;12.20;61.80
80232;DHT22;74189;42.124;24.752;2024-03-17T06:50:09;12.20;61.80
80232;DHT22;74189;42.124;24.752;2024-03-17T06:52:36;12.20;62.00
80232;DHT22;74189;42.124;24.752;2024-03-17T06:55:05;12.20;62.00
80232;DHT22;74189;42.124;24.752;2024-03-17T06:57:33;12.20;61.70
80232;DHT22;74189;42.124;24.752;2024-03-17T07:00:03;12.20;61.90
80232;DHT22;74189;42.124;24.752;2024-03-17T07:02:32;12.30;61.90
80232;DHT22;74189;42.124;24.752;2024-03-17T07:04:59;12.40;61.50
80232;DHT22;74189;42.124;24.752;2024-03-17T07:07:28;12.60;61.10
80232;DHT22;74189;42.124;24.752;2024-03-17T07:09:54;12.80;60.30
80232;DHT22;74189;42.124;24.752;2024-03-17T07:12:21;12.90;59.30
80232;DHT22;74189;42.124;24.752;2024-03-17T07:14:50;13.10;58.60
80232;DHT22;74189;42.124;24.752;2024-03-17T07:17:17;13.20;58.40
80232;DHT22;74189;42.124;24.752;2024-03-17T07:19:43;13.30;58.20
80232;DHT22;74189;42.124;24.752;2024-03-17T07:22:10;13.30;58.70
80232;DHT22;74189;42.124;24.752;2024-03-17T07:24:36;13.10;58.30
80232;DHT22;74189;42.124;24.752;2024-03-17T07:27:02;12.80;59.00
80232;DHT22;74189;42.124;24.752;2024-03-17T07:29:29;12.40;60.50
80232;DHT22;74189;42.124;24.752;2024-03-17T07:31:55;12.10;61.70
80232;DHT22;74189;42.124;24.752;2024-03-17T07:34:21;12.30;62.00
80232;DHT22;74189;42.124;24.752;2024-03-17T07:36:48;12.70;61.30
80232;DHT22;74189;42.124;24.752;2024-03-17T07:39:14;13.00;59.70
80232;DHT22;74189;42.124;24.752;2024-03-17T07:41:40;12.90;58.30
80232;DHT22;74189;42.124;24.752;2024-03-17T07:44:07;12.90;57.40
80232;DHT22;74189;42.124;24.752;2024-03-17T07:46:33;12.70;57.70
80232;DHT22;74189;42.124;24.752;2024-03-17T07:48:59;12.80;57.90
80232;DHT22;74189;42.124;24.752;2024-03-17T07:51:26;12.70;58.60
80232;DHT22;74189;42.124;24.752;2024-03-17T07:53:52;12.50;59.50
80232;DHT22;74189;42.124;24.752;2024-03-17T07:56:19;12.70;58.60
80232;DHT22;74189;42.124;24.752;2024-03-17T07:58:45;12.90;57.00
80232;DHT22;74189;42.124;24.752;2024-03-17T08:01:15;13.20;56.00
80232;DHT22;74189;42.124;24.752;2024-03-17T08:03:46;13.40;55.20
80232;DHT22;74189;42.124;24.752;2024-03-17T08:06:15;13.20;56.10
80232;DHT22;74189;42.124;24.752;2024-03-17T08:08:41;13.10;56.60
80232;DHT22;74189;42.124;24.752;2024-03-17T08:11:07;13.00;57.70
80232;DHT22;74189;42.124;24.752;2024-03-17T08:13:34;13.10;57.90
80232;DHT22;74189;42.124;24.752;2024-03-17T08:16:03;12.90;58.30
80232;DHT22;74189;42.124;24.752;2024-03-17T08:18:34;13.20;58.30
80232;DHT22;74189;42.124;24.752;2024-03-17T08:21:02;13.20;58.30
80232;DHT22;74189;42.124;24.752;2024-03-17T08:23:35;13.30;58.30
80232;DHT22;74189;42.124;24.752;2024-03-17T08:26:05;13.30;58.20
80232;DHT22;74189;42.124;24.752;2024-03-17T08:28:31;13.20;58.30
80232;DHT22;74189;42.124;24.752;2024-03-17T08:30:59;13.20;58.80
80232;DHT22;74189;42.124;24.752;2024-03-17T08:33:26;13.30;59.20
80232;DHT22;74189;42.124;24.752;2024-03-17T08:36:03;13.40;58.80
80232;DHT22;74189;42.124;24.752;2024-03-17T08:38:31;13.70;58.10
80232;DHT22;74189;42.124;24.752;2024-03-17T08:41:05;14.00;56.20
80232;DHT22;74189;42.124;24.752;2024-03-17T08:43:31;14.10;55.40
80232;DHT22;74189;42.124;24.752;2024-03-17T08:46:02;13.60;58.20
80232;DHT22;74189;42.124;24.752;2024-03-17T08:48:31;13.50;57.80
80232;DHT22;74189;42.124;24.752;2024-03-17T08:50:58;13.60;57.90
80232;DHT22;74189;42.124;24.752;2024-03-17T08:53:25;13.50;57.40
80232;DHT22;74189;42.124;24.752;2024-03-17T08:55:56;13.70;57.80
80232;DHT22;74189;42.124;24.752;2024-03-17T08:58:23;13.70;57.60
80232;DHT22;74189;42.124;24.752;2024-03-17T09:00:50;13.70;58.40
80232;DHT22;74189;42.124;24.752;2024-03-17T09:03:17;13.90;57.40
80232;DHT22;74189;42.124;24.752;2024-03-17T09:05:48;14.00;57.60
80232;DHT22;74189;42.124;24.752;2024-03-17T09:08:17;14.20;57.20
80232;DHT22;74189;42.124;24.752;2024-03-17T09:10:44;14.40;56.60
80232;DHT22;74189;42.124;24.752;2024-03-17T09:13:15;14.00;56.60
80232;DHT22;74189;42.124;24.752;2024-03-17T09:18:19;13.60;57.10
80232;DHT22;74189;42.124;24.752;2024-03-17T09:20:46;13.60;58.10
80232;DHT22;74189;42.124;24.752;2024-03-17T09:23:12;14.00;56.60
80232;DHT22;74189;42.124;24.752;2024-03-17T09:25:40;14.40;55.80
80232;DHT22;74189;42.124;24.752;2024-03-17T09:28:06;14.40;55.10
80232;DHT22;74189;42.124;24.752;2024-03-17T09:30:32;14.30;55.40
80232;DHT22;74189;42.124;24.752;2024-03-17T09:32:59;14.40;55.20
80232;DHT22;74189;42.124;24.752;2024-03-17T09:35:25;14.20;55.00
80232;DHT22;74189;42.124;24.752;2024-03-17T09:37:52;14.10;55.80
80232;DHT22;74189;42.124;24.752;2024-03-17T09:40:18;14.20;55.90
80232;DHT22;74189;42.124;24.752;2024-03-17T09:42:44;14.10;55.60
80232;DHT22;74189;42.124;24.752;2024-03-17T09:45:10;14.00;56.20
80232;DHT22;74189;42.124;24.752;2024-03-17T09:47:37;13.90;56.70
80232;DHT22;74189;42.124;24.752;2024-03-17T09:50:04;14.00;56.80
80232;DHT22;74189;42.124;24.752;2024-03-17T09:52:33;14.30;56.20
80232;DHT22;74189;42.124;24.752;2024-03-17T09:55:06;14.60;55.20
80232;DHT22;74189;42.124;24.752;2024-03-17T09:57:36;14.80;54.80
80232;DHT22;74189;42.124;24.752;2024-03-17T10:00:10;15.00;54.40
80232;DHT22;74189;42.124;24.752;2024-03-17T10:02:47;15.20;53.60
80232;DHT22;74189;42.124;24.752;2024-03-17T10:05:23;15.20;53.20
80232;DHT22;74189;42.124;24.752;2024-03-17T10:07:51;15.30;52.10
80232;DHT22;74189;42.124;24.752;2024-03-17T10:10:18;14.70;53.60
80232;DHT22;74189;42.124;24.752;2024-03-17T10:12:50;14.50;54.70
80232;DHT22;74189;42.124;24.752;2024-03-17T10:15:19;14.50;55.30
80232;DHT22;74189;42.124;24.752;2024-03-17T10:17:49;14.70;55.20
80232;DHT22;74189;42.124;24.752;2024-03-17T10:20:18;14.80;53.80
80232;DHT22;74189;42.124;24.752;2024-03-17T10:23:00;14.80;53.80
80232;DHT22;74189;42.124;24.752;2024-03-17T10:25:28;15.00;54.00
80232;DHT22;74189;42.124;24.752;2024-03-17T10:27:55;15.20;53.50
80232;DHT22;74189;42.124;24.752;2024-03-17T10:30:23;15.30;53.40
80232;DHT22;74189;42.124;24.752;2024-03-17T10:32:53;15.40;52.40
80232;DHT22;74189;42.124;24.752;2024-03-17T10:35:37;15.60;51.40
80232;DHT22;74189;42.124;24.752;2024-03-17T10:38:09;14.60;53.70
80232;DHT22;74189;42.124;24.752;2024-03-17T10:40:39;14.50;55.00
80232;DHT22;74189;42.124;24.752;2024-03-17T10:43:06;14.70;54.30
80232;DHT22;74189;42.124;24.752;2024-03-17T10:45:36;14.80;54.70
80232;DHT22;74189;42.124;24.752;2024-03-17T10:48:08;15.00;53.90
80232;DHT22;74189;42.124;24.752;2024-03-17T10:50:39;14.90;53.80
80232;DHT22;74189;42.124;24.752;2024-03-17T10:53:07;15.00;54.00
80232;DHT22;74189;42.124;24.752;2024-03-17T10:55:46;15.20;54.50
80232;DHT22;74189;42.124;24.752;2024-03-17T10:58:39;15.10;52.50
80232;DHT22;74189;42.124;24.752;2024-03-17T11:01:14;15.20;54.10
80232;DHT22;74189;42.124;24.752;2024-03-17T11:03:40;15.60;51.80
80232;DHT22;74189;42.124;24.752;2024-03-17T11:06:08;15.70;50.40
80232;DHT22;74189;42.124;24.752;2024-03-17T11:08:35;15.80;50.70
80232;DHT22;74189;42.124;24.752;2024-03-17T11:11:03;15.60;50.50
80232;DHT22;74189;42.124;24.752;2024-03-17T11:13:31;15.60;50.60
80232;DHT22;74189;42.124;24.752;2024-03-17T11:15:58;15.50;50.70
80232;DHT22;74189;42.124;24.752;2024-03-17T11:18:28;15.60;51.50
80232;DHT22;74189;42.124;24.752;2024-03-17T11:21:01;15.50;51.10
80232;DHT22;74189;42.124;24.752;2024-03-17T11:23:34;15.50;51.60
80232;DHT22;74189;42.124;24.752;2024-03-17T11:26:00;15.80;50.90
80232;DHT22;74189;42.124;24.752;2024-03-17T11:28:45;15.90;51.00
80232;DHT22;74189;42.124;24.752;2024-03-17T11:33:58;16.20;48.60
80232;DHT22;74189;42.124;24.752;2024-03-17T11:38:58;16.10;48.30
80232;DHT22;74189;42.124;24.752;2024-03-17T11:41:43;16.00;48.30
80232;DHT22;74189;42.124;24.752;2024-03-17T11:47:00;16.40;47.20
80232;DHT22;74189;42.124;24.752;2024-03-17T11:49:31;16.50;47.80
80232;DHT22;74189;42.124;24.752;2024-03-17T11:52:03;16.60;49.90
80232;DHT22;74189;42.124;24.752;2024-03-17T11:54:34;16.60;46.80
80232;DHT22;74189;42.124;24.752;2024-03-17T11:57:02;16.70;44.80
80232;DHT22;74189;42.124;24.752;2024-03-17T11:59:28;16.90;45.00
80232;DHT22;74189;42.124;24.752;2024-03-17T12:01:55;16.70;44.10
80232;DHT22;74189;42.124;24.752;2024-03-17T12:04:23;16.80;44.10
80232;DHT22;74189;42.124;24.752;2024-03-17T12:06:53;16.80;44.70
80232;DHT22;74189;42.124;24.752;2024-03-17T12:09:21;16.60;44.50
80232;DHT22;74189;42.124;24.752;2024-03-17T12:12:11;16.30;45.20
80232;DHT22;74189;42.124;24.752;2024-03-17T12:14:39;16.30;45.20
80232;DHT22;74189;42.124;24.752;2024-03-17T12:17:10;16.10;45.80
80232;DHT22;74189;42.124;24.752;2024-03-17T12:19:37;16.10;45.40
80232;DHT22;74189;42.124;24.752;2024-03-17T12:22:05;16.30;45.60
80232;DHT22;74189;42.124;24.752;2024-03-17T12:24:36;16.50;44.70
80232;DHT22;74189;42.124;24.752;2024-03-17T12:27:05;16.90;43.50
80232;DHT22;74189;42.124;24.752;2024-03-17T12:29:33;17.10;43.90
80232;DHT22;74189;42.124;24.752;2024-03-17T12:34:40;17.20;42.20
80232;DHT22;74189;42.124;24.752;2024-03-17T12:37:07;17.20;41.20
80232;DHT22;74189;42.124;24.752;2024-03-17T12:39:35;17.20;38.30
80232;DHT22;74189;42.124;24.752;2024-03-17T12:44:37;17.40;37.70
80232;DHT22;74189;42.124;24.752;2024-03-17T12:47:05;17.30;36.60
80232;DHT22;74189;42.124;24.752;2024-03-17T12:49:33;17.20;37.80
80232;DHT22;74189;42.124;24.752;2024-03-17T12:52:02;17.20;38.10
80232;DHT22;74189;42.124;24.752;2024-03-17T12:54:29;17.20;38.30
80232;DHT22;74189;42.124;24.752;2024-03-17T12:57:08;17.40;38.30
80232;DHT22;74189;42.124;24.752;2024-03-17T12:59:53;17.50;36.50
80232;DHT22;74189;42.124;24.752;2024-03-17T13:02:42;17.80;36.40
80232;DHT22;74189;42.124;24.752;2024-03-17T13:05:15;17.90;35.70
80232;DHT22;74189;42.124;24.752;2024-03-17T13:07:46;18.00;37.00
80232;DHT22;74189;42.124;24.752;2024-03-17T13:10:18;18.20;35.30
80232;DHT22;74189;42.124;24.752;2024-03-17T13:12:46;18.20;37.00
80232;DHT22;74189;42.124;24.752;2024-03-17T13:15:16;18.00;36.40
80232;DHT22;74189;42.124;24.752;2024-03-17T13:17:46;18.00;36.60
80232;DHT22;74189;42.124;24.752;2024-03-17T13:20:16;18.10;35.30
80232;DHT22;74189;42.124;24.752;2024-03-17T13:22:44;18.10;34.80
80232;DHT22;74189;42.124;24.752;2024-03-17T13:25:19;18.10;35.10
80232;DHT22;74189;42.124;24.752;2024-03-17T13:27:48;18.10;33.20
80232;DHT22;74189;42.124;24.752;2024-03-17T13:30:15;18.20;33.50
80232;DHT22;74189;42.124;24.752;2024-03-17T13:32:42;18.40;34.50
80232;DHT22;74189;42.124;24.752;2024-03-17T13:35:19;18.70;34.00
80232;DHT22;74189;42.124;24.752;2024-03-17T13:37:46;18.70;34.20
80232;DHT22;74189;42.124;24.752;2024-03-17T13:40:14;18.80;34.20
80232;DHT22;74189;42.124;24.752;2024-03-17T13:42:43;18.90;34.70
80232;DHT22;74189;42.124;24.752;2024-03-17T13:45:16;18.80;34.80
80232;DHT22;74189;42.124;24.752;2024-03-17T13:47:52;18.60;34.30
80232;DHT22;74189;42.124;24.752;2024-03-17T13:50:19;18.70;34.10
80232;DHT22;74189;42.124;24.752;2024-03-17T13:52:46;18.70;33.40
80232;DHT22;74189;42.124;24.752;2024-03-17T13:55:17;18.70;33.60
80232;DHT22;74189;42.124;24.752;2024-03-17T13:57:46;18.50;33.90
80232;DHT22;74189;42.124;24.752;2024-03-17T14:00:13;18.40;33.50
80232;DHT22;74189;42.124;24.752;2024-03-17T14:02:47;18.30;33.90
80232;DHT22;74189;42.124;24.752;2024-03-17T14:05:18;18.00;34.60
80232;DHT22;74189;42.124;24.752;2024-03-17T14:07:44;18.20;35.10
80232;DHT22;74189;42.124;24.752;2024-03-17T14:10:14;18.10;35.00
80232;DHT22;74189;42.124;24.752;2024-03-17T14:12:40;18.00;34.50
80232;DHT22;74189;42.124;24.752;2024-03-17T14:15:08;17.80;35.20
80232;DHT22;74189;42.124;24.752;2024-03-17T14:17:45;17.70;36.10
80232;DHT22;74189;42.124;24.752;2024-03-17T14:20:13;17.70;36.40
80232;DHT22;74189;42.124;24.752;2024-03-17T14:22:41;17.80;36.60
80232;DHT22;74189;42.124;24.752;2024-03-17T14:25:16;17.80;36.10
80232;DHT22;74189;42.124;24.752;2024-03-17T14:27:46;17.90;35.40
80232;DHT22;74189;42.124;24.752;2024-03-17T14:30:18;18.00;35.70
80232;DHT22;74189;42.124;24.752;2024-03-17T14:32:45;18.00;35.20
80232;DHT22;74189;42.124;24.752;2024-03-17T14:35:18;18.20;35.20
80232;DHT22;74189;42.124;24.752;2024-03-17T14:37:46;18.20;35.20
80232;DHT22;74189;42.124;24.752;2024-03-17T14:40:18;18.20;35.40
80232;DHT22;74189;42.124;24.752;2024-03-17T14:42:50;18.30;35.00
80232;DHT22;74189;42.124;24.752;2024-03-17T14:45:19;18.30;36.70
80232;DHT22;74189;42.124;24.752;2024-03-17T14:47:46;18.40;35.20
80232;DHT22;74189;42.124;24.752;2024-03-17T14:50:13;18.30;35.60
80232;DHT22;74189;42.124;24.752;2024-03-17T14:52:40;18.20;36.00
80232;DHT22;74189;42.124;24.752;2024-03-17T14:55:10;18.20;35.60
80232;DHT22;74189;42.124;24.752;2024-03-17T14:57:37;18.30;35.10
80232;DHT22;74189;42.124;24.752;2024-03-17T15:00:10;18.10;35.70
80232;DHT22;74189;42.124;24.752;2024-03-17T15:02:43;18.10;35.50
80232;DHT22;74189;42.124;24.752;2024-03-17T15:05:11;18.00;36.30
80232;DHT22;74189;42.124;24.752;2024-03-17T15:07:38;18.00;37.00
80232;DHT22;74189;42.124;24.752;2024-03-17T15:10:06;17.90;36.20
80232;DHT22;74189;42.124;24.752;2024-03-17T15:12:33;17.80;36.60
80232;DHT22;74189;42.124;24.752;2024-03-17T15:14:59;17.80;37.20
80232;DHT22;74189;42.124;24.752;2024-03-17T15:17:26;17.70;37.40
80232;DHT22;74189;42.124;24.752;2024-03-17T15:19:53;17.70;37.80
80232;DHT22;74189;42.124;24.752;2024-03-17T15:22:21;17.60;37.70
80232;DHT22;74189;42.124;24.752;2024-03-17T15:24:48;17.70;37.40
80232;DHT22;74189;42.124;24.752;2024-03-17T15:27:14;17.70;37.60
80232;DHT22;74189;42.124;24.752;2024-03-17T15:29:41;17.70;37.70
80232;DHT22;74189;42.124;24.752;2024-03-17T15:32:07;17.60;37.40
80232;DHT22;74189;42.124;24.752;2024-03-17T15:34:33;17.60;38.00
80232;DHT22;74189;42.124;24.752;2024-03-17T15:37:03;17.70;38.40
80232;DHT22;74189;42.124;24.752;2024-03-17T15:39:31;17.60;38.50
80232;DHT22;74189;42.124;24.752;2024-03-17T15:41:57;17.60;38.30